Startpagina
METAR-TAF:

METAR-TAF

Vliegvelden :

Flughafen Sylt

Westerland, Duitsland

breedte: 54-55N, lengte: 008-21E, hoogte: 16 m

Actueel weer

Dit bericht is 30 minuten geleden gemaakt, om 15:50 UTC
Wind 3 kt uit variabele richting
Temperatuur 24°C
Vochtigheid 69%
Druk 1009 hPa
Zicht 10 km of meer
Verspreide wolken op 9500 ft, Cumulonimbus.

METAR: EDXW 261550Z VRB03KT 9999 SCT095CB 24/18 Q1009

Tijdstip: 18:20 (16:20 UTC)

Verwachting

Dit bericht is 2 uur en het 20 minuten geleden gemaakt, om 14:00 UTC
Verwachting geldig van 26 om 15 UTC tot 26 om 21 UTC
Wind 4 kt uit het zuiden
Zicht 10 km of meer
Weinig wolken op 2000 ft
Tijdelijke
van 26 om 15 UTC tot 26 om 21 UTC
Wind 10 kt uit het zuiden

TAF: EDXW 261400Z 2615/2621 17004KT 9999 FEW020 TEMPO 2615/2621 17010KT

Waarnemingen en weersverwachtingen van meer dan 4000 vliegvelden (METAR en TAF).

De beschikbare stations zijn de gele en rode punten op de kaart.

Ga met uw muis naar het station om de naam te zien.

Klik dan om waarnemingen en weersverwachtingen te zien.

kaart wijzigen: klik op de groene knoppen met een zwart kruis om in te zoomen, op de groene knop met een streepje om uit te zoomen of op de groene pijlen voor aangrenzende kaarten.


METAR-TAF: